Queen Charlotte, Canada
Current Conditions -  °F | °C
As of 9:00 AM on Monday 22 Dec 2014 (Local Time) from CYZP Reporting Station
Broken Clouds Broken Clouds  
Wind Chill: 31°   Ceiling: 24000
Heat Index: 37°   Visibility: 9mi
Dew Point: 34°   Wind: 9mph
Humidity: 87%   Direction: 170°S
Pressure: 30.2"   Gusts: NA
Location:  53.25°N, 132.09°W
Report Text: CYZP 221700Z AUTO 17008KT 9SM SCT033 BKN240 03/01 A3020 RMK SLP226
Loading
Personal Weather Stations






























Interactive Weather Map New forecast layout! Learn more

10-Day Weather Forecast

Advertisements
Track Severe Weather on mobile